Aérodrome :
LOGIN :

S'inscrire | Disclaimer

   EN    FR    IT 

 










Légende :    VFR   VFR Marginal   IFR   IFR Intensif   IFR Très Intensif
Visi : 
Plafond : 
>= 8 km
>= 3000ft
5 à 8 km
1000 à 3000 ft
1500m à 5 km
500 à 1000 ft
800 à 1500m
200 à 500 ft
< 800m
< 200 ft
Symboles :   Orages  Brouillard  Fortes neiges  Fortes précipitations  Vent > 20 kt
SIGMETs :   Divers  Orages  Givrage  Turbulence  Onde Orograph.  Cendres Volcan.







- Altitude de l'aérodrome : 90 ft
- Code IATA : NTE
- Voir les cartes d'approche


LFRS - Nantes

DERNIER METAR :
  • 211000Z AUTO 29009KT 260V330 CAVOK 16/10 Q1019 NOSIG

METARs EXPIRÉS :
  • 210930Z AUTO 31009KT 280V360 9999 FEW026 15/10 Q1018 NOSIG
  • 210900Z AUTO 31009KT 290V350 CAVOK 15/11 Q1018 NOSIG
  • 210830Z AUTO 31009KT CAVOK 15/11 Q1017 NOSIG
  • 210800Z AUTO 30009KT 270V330 9999 FEW046 15/12 Q1016 NOSIG
  • 210730Z AUTO 30007KT 9999 SCT044 SCT050 14/12 Q1016 NOSIG

TAF TAF LFRS
Valide du 21 à 06h jusqu'au 22 à 12h UTC


210500Z 2106/2212 30010KT 9999 SCT025
BECMG 2109/2111 CAVOK
BECMG 2200/2202 VRB03KT
ATIS : +33 2 40 05 12 74
Pas de NOTAMs connus pour ce terrain.



MET'MAP, la Météo Aéronautique d'un coup d'oeil ! - Copyright ORBIFLY Décembre 2007 - Disclaimer

ORBIFLY MET'MAP TEAM :

Programmation & Développement : Alexandra Zaïnal
Conception & Développement : Baudouin d'Aumeries
Co-Programmation & Développement : Marc-Olivier Méhu
Soutien technique & logistique : Manuel Goepfert

Contact : metmap@orbifly.com




SOURCES & CREDITS :

   NOAA